createdAt,value
2019-01-04T00:04:16.582Z,5.67
2019-01-04T00:06:45.180Z,3.97
2019-01-04T00:09:13.758Z,5.27
2019-01-04T00:11:42.322Z,6.60
2019-01-04T00:14:10.963Z,4.83
2019-01-04T00:16:39.530Z,8.53
2019-01-04T00:19:08.176Z,5.27
2019-01-04T00:21:56.079Z,6.90
2019-01-04T00:24:24.667Z,4.73
2019-01-04T00:26:53.246Z,6.23
2019-01-04T00:29:21.822Z,8.13
2019-01-04T00:31:50.382Z,8.00
2019-01-04T00:34:18.958Z,6.30
2019-01-04T00:36:47.525Z,4.20
2019-01-04T00:39:16.112Z,8.27
2019-01-04T00:41:44.682Z,7.00
2019-01-04T00:44:13.259Z,4.40
2019-01-04T00:46:41.822Z,6.87
2019-01-04T00:49:10.448Z,12.57
2019-01-04T00:51:38.988Z,13.57
2019-01-04T00:54:07.643Z,8.17
2019-01-04T00:56:56.987Z,5.43
2019-01-04T00:59:46.357Z,4.80
2019-01-04T01:02:35.714Z,5.87
2019-01-04T01:05:25.178Z,7.93
2019-01-04T01:08:32.376Z,6.57
2019-01-04T01:11:39.583Z,5.23
2019-01-04T01:14:46.788Z,12.73
2019-01-04T01:17:36.129Z,6.00
2019-01-04T01:20:43.354Z,5.97
2019-01-04T01:23:32.786Z,5.87
2019-01-04T01:26:22.161Z,8.03
2019-01-04T01:29:11.630Z,7.90
2019-01-04T01:32:00.990Z,4.97
2019-01-04T01:35:08.199Z,4.13
2019-01-04T01:38:15.345Z,7.23
2019-01-04T01:41:22.573Z,8.20
2019-01-04T01:44:29.761Z,7.43
2019-01-04T01:47:19.142Z,8.47
2019-01-04T01:50:26.353Z,8.37
2019-01-04T01:55:48.154Z,5.67
2019-01-04T01:58:16.727Z,7.60
2019-01-04T02:00:45.314Z,8.73
2019-01-04T02:03:13.940Z,5.20
2019-01-04T02:05:42.531Z,5.80
2019-01-04T02:08:11.109Z,9.23
2019-01-04T02:10:39.705Z,7.47
2019-01-04T02:13:08.266Z,4.57
2019-01-04T02:15:36.844Z,8.13
2019-01-04T02:18:05.411Z,9.23
2019-01-04T02:20:33.997Z,6.57
2019-01-04T02:23:02.562Z,6.67
2019-01-04T02:25:31.143Z,8.03
2019-01-04T02:27:59.699Z,5.70
2019-01-04T02:30:28.287Z,9.50
2019-01-04T02:32:56.849Z,6.30
2019-01-04T02:35:25.430Z,5.73
2019-01-04T02:37:53.998Z,7.03
2019-01-04T02:40:22.579Z,6.33
2019-01-04T02:42:51.210Z,6.13
2019-01-04T02:45:19.813Z,7.37
2019-01-04T02:47:48.382Z,10.20
2019-01-04T02:50:16.972Z,6.23
2019-01-04T02:52:45.531Z,7.03
2019-01-04T02:55:14.087Z,10.80
2019-01-04T02:57:42.674Z,16.43
2019-01-04T03:00:11.288Z,7.00
2019-01-04T03:02:39.875Z,6.70
2019-01-04T03:05:08.521Z,6.27
2019-01-04T03:07:37.108Z,7.57
2019-01-04T03:10:05.735Z,9.83
2019-01-04T03:12:34.326Z,8.10
2019-01-04T03:15:02.892Z,8.83
2019-01-04T03:20:27.536Z,8.93
2019-01-04T03:22:56.108Z,8.27
2019-01-04T03:25:24.676Z,8.37
2019-01-04T03:27:53.260Z,8.80
2019-01-04T03:30:21.823Z,11.83
2019-01-04T03:32:50.543Z,9.03
2019-01-04T03:35:19.141Z,12.40
2019-01-04T03:37:47.703Z,17.53
2019-01-04T03:40:16.262Z,11.57
2019-01-04T03:42:44.849Z,19.50
2019-01-04T03:45:13.413Z,20.00
2019-01-04T03:47:42.006Z,11.37
2019-01-04T03:50:10.647Z,10.60
2019-01-04T03:52:39.231Z,14.57
2019-01-04T03:55:07.902Z,15.07
2019-01-04T03:57:36.455Z,14.47
2019-01-04T04:00:25.810Z,16.03
2019-01-04T04:02:54.395Z,19.43
2019-01-04T04:05:22.953Z,13.80
2019-01-04T04:07:51.531Z,15.40
2019-01-04T04:10:20.076Z,18.87
2019-01-04T04:12:48.668Z,13.07
2019-01-04T04:15:17.255Z,25.83
2019-01-04T04:17:45.832Z,14.47
2019-01-04T04:20:14.394Z,13.23
2019-01-04T04:22:42.983Z,17.97
2019-01-04T04:25:11.544Z,21.57
2019-01-04T04:27:40.101Z,14.67
2019-01-04T04:30:29.464Z,17.73
2019-01-04T04:32:58.085Z,15.60
2019-01-04T04:35:26.663Z,18.53
2019-01-04T04:37:55.232Z,22.67
2019-01-04T04:40:23.803Z,19.23
2019-01-04T04:42:52.359Z,15.07
2019-01-04T04:45:20.952Z,19.67
2019-01-04T04:47:49.510Z,19.13
2019-01-04T04:50:18.102Z,19.83
2019-01-04T04:52:46.666Z,21.03
2019-01-04T04:55:15.270Z,17.60
2019-01-04T04:57:43.822Z,24.20
2019-01-04T05:00:12.410Z,18.87
2019-01-04T05:02:40.977Z,20.10
2019-01-04T05:05:09.580Z,18.70
2019-01-04T05:07:38.133Z,20.33
2019-01-04T05:10:06.771Z,21.37
2019-01-04T05:12:35.333Z,18.13
2019-01-04T05:15:03.988Z,18.03
2019-01-04T05:17:32.560Z,28.43
2019-01-04T05:20:01.154Z,20.87
2019-01-04T05:22:29.753Z,21.03
2019-01-04T05:24:58.347Z,19.03
2019-01-04T05:27:26.902Z,22.40
2019-01-04T05:29:55.484Z,17.93
2019-01-04T05:32:24.040Z,20.20
2019-01-04T05:34:52.610Z,21.00
2019-01-04T05:37:21.209Z,22.90
2019-01-04T05:39:49.778Z,18.77
2019-01-04T05:42:18.367Z,20.77
2019-01-04T05:44:46.942Z,17.70
2019-01-04T05:47:15.533Z,30.37
2019-01-04T05:49:44.090Z,24.60
2019-01-04T05:52:12.678Z,19.07
2019-01-04T05:54:41.247Z,19.57
2019-01-04T05:57:09.845Z,16.67
2019-01-04T05:59:38.413Z,18.43
2019-01-04T06:02:07.015Z,17.73
2019-01-04T06:04:35.583Z,24.90
2019-01-04T06:07:04.180Z,17.67
2019-01-04T06:09:32.747Z,18.37
2019-01-04T06:12:01.346Z,18.10
2019-01-04T06:14:29.901Z,24.27
2019-01-04T06:16:58.493Z,16.63
2019-01-04T06:19:27.060Z,24.53
2019-01-04T06:21:55.651Z,16.20
2019-01-04T06:24:24.200Z,18.17
2019-01-04T06:26:52.786Z,21.93
2019-01-04T06:29:21.351Z,19.33
2019-01-04T06:31:49.919Z,17.20
2019-01-04T06:34:18.511Z,23.57
2019-01-04T06:36:47.072Z,16.73
2019-01-04T06:39:15.662Z,19.83
2019-01-04T06:41:44.256Z,23.90
2019-01-04T06:44:12.854Z,16.53
2019-01-04T06:47:20.001Z,16.07
2019-01-04T06:49:48.582Z,18.97
2019-01-04T06:52:17.154Z,19.63
2019-01-04T06:55:24.321Z,23.67
2019-01-04T06:57:52.915Z,15.47
2019-01-04T07:00:21.479Z,22.23
2019-01-04T07:02:50.105Z,30.00
2019-01-04T07:05:18.661Z,19.33
2019-01-04T07:07:47.238Z,20.23
2019-01-04T07:10:15.818Z,16.87
2019-01-04T07:12:44.375Z,22.17
2019-01-04T07:15:12.973Z,17.37
2019-01-04T07:17:41.534Z,20.03
2019-01-04T07:20:10.118Z,17.23
2019-01-04T07:22:38.684Z,16.93
2019-01-04T07:25:07.276Z,13.10
2019-01-04T07:27:35.837Z,16.27
2019-01-04T07:30:25.207Z,17.03
2019-01-04T07:32:53.762Z,18.40
2019-01-04T07:35:22.346Z,13.93
2019-01-04T07:37:50.895Z,15.27
2019-01-04T07:40:19.489Z,22.07
2019-01-04T07:42:48.049Z,15.93
2019-01-04T07:45:16.643Z,19.27
2019-01-04T07:47:45.201Z,14.80
2019-01-04T07:50:13.784Z,11.77
2019-01-04T07:53:01.465Z,15.03
2019-01-04T07:55:30.062Z,13.73
2019-01-04T07:57:58.647Z,20.47
2019-01-04T08:00:27.228Z,19.83
2019-01-04T08:03:14.982Z,15.50
2019-01-04T08:05:43.562Z,14.30
2019-01-04T08:08:12.137Z,14.97
2019-01-04T08:10:40.712Z,15.63
2019-01-04T08:13:09.283Z,14.43
2019-01-04T08:15:37.870Z,17.27
2019-01-04T08:18:06.434Z,14.93
2019-01-04T08:20:35.015Z,12.03
2019-01-04T08:23:03.568Z,14.20
2019-01-04T08:25:32.151Z,10.37
2019-01-04T08:28:00.739Z,13.70
2019-01-04T08:30:29.322Z,14.40
2019-01-04T08:32:57.889Z,12.17
2019-01-04T08:35:26.471Z,18.57
2019-01-04T08:37:55.050Z,13.00
2019-01-04T08:40:23.633Z,17.70
2019-01-04T08:42:52.226Z,11.47
2019-01-04T08:45:20.787Z,15.20
2019-01-04T08:47:49.370Z,12.17
2019-01-04T08:50:17.932Z,13.53
2019-01-04T08:52:46.517Z,12.43
2019-01-04T08:55:35.902Z,9.47
2019-01-04T08:58:04.481Z,10.83
2019-01-04T09:00:33.046Z,9.27
2019-01-04T09:03:01.632Z,11.30
2019-01-04T09:05:30.190Z,13.97
2019-01-04T09:07:58.767Z,11.13
2019-01-04T09:10:27.327Z,15.70
2019-01-04T09:12:55.909Z,9.40
2019-01-04T09:15:24.456Z,10.93
2019-01-04T09:17:53.049Z,13.40
2019-01-04T09:20:21.606Z,11.17
2019-01-04T09:22:50.192Z,9.40
2019-01-04T09:25:38.082Z,11.43
2019-01-04T09:28:06.663Z,13.10
2019-01-04T09:30:35.282Z,11.37
2019-01-04T09:33:03.863Z,8.87
2019-01-04T09:35:32.423Z,11.80
2019-01-04T09:38:01.004Z,9.30
2019-01-04T09:40:29.561Z,9.53
2019-01-04T09:42:58.145Z,11.50
2019-01-04T09:45:26.719Z,10.40
2019-01-04T09:47:55.295Z,10.63
2019-01-04T09:50:23.864Z,10.10
2019-01-04T09:52:52.463Z,13.77
2019-01-04T09:55:21.032Z,10.57
2019-01-04T09:57:49.684Z,10.27
2019-01-04T10:00:18.209Z,12.10
2019-01-04T10:05:20.710Z,12.40
2019-01-04T10:07:49.267Z,11.03
2019-01-04T10:10:17.861Z,11.10
2019-01-04T10:12:46.428Z,11.33
2019-01-04T10:15:35.800Z,11.03
2019-01-04T10:18:04.359Z,10.97
2019-01-04T10:20:32.951Z,11.43
2019-01-04T10:23:01.515Z,9.53
2019-01-04T10:25:30.102Z,11.03
2019-01-04T10:27:58.682Z,9.40
2019-01-04T10:30:27.410Z,12.13
2019-01-04T10:32:56.038Z,13.70
2019-01-04T10:35:24.626Z,16.20
2019-01-04T10:37:53.186Z,8.40
2019-01-04T10:40:21.776Z,11.60
2019-01-04T10:42:50.335Z,10.73
2019-01-04T10:45:18.912Z,7.50
2019-01-04T10:47:47.467Z,9.13
2019-01-04T10:50:16.048Z,9.77
2019-01-04T10:52:44.610Z,8.23
2019-01-04T10:55:13.224Z,21.60
2019-01-04T10:57:41.787Z,8.00
2019-01-04T11:00:31.163Z,10.63
2019-01-04T11:02:59.722Z,10.83
2019-01-04T11:05:28.315Z,7.93
2019-01-04T11:07:56.882Z,11.43
2019-01-04T11:10:25.471Z,8.30
2019-01-04T11:12:54.025Z,9.00
2019-01-04T11:15:22.605Z,6.30
2019-01-04T11:17:51.163Z,7.00
2019-01-04T11:20:40.065Z,7.00
2019-01-04T11:23:29.446Z,7.13
2019-01-04T11:26:36.645Z,12.67
2019-01-04T11:29:43.846Z,9.50
2019-01-04T11:32:33.298Z,8.90
2019-01-04T11:35:40.479Z,7.70
2019-01-04T11:38:29.906Z,7.73
2019-01-04T11:41:19.271Z,9.67
2019-01-04T11:44:08.742Z,8.97
2019-01-04T11:46:58.097Z,6.67
2019-01-04T11:49:47.548Z,8.30
2019-01-04T11:52:36.924Z,5.97
2019-01-04T11:55:26.291Z,8.23
2019-01-04T11:57:54.897Z,4.17
2019-01-04T12:00:23.439Z,6.40
2019-01-04T12:02:52.025Z,6.20
2019-01-04T12:05:20.578Z,8.80
2019-01-04T12:07:49.155Z,5.63
2019-01-04T12:10:17.716Z,8.50
2019-01-04T12:12:46.301Z,5.80
2019-01-04T12:15:14.877Z,8.47
2019-01-04T12:17:43.468Z,6.70
2019-01-04T12:20:12.024Z,4.40
2019-01-04T12:22:40.608Z,6.63
2019-01-04T12:25:09.174Z,5.57
2019-01-04T12:27:37.774Z,6.17
2019-01-04T12:30:27.123Z,4.60
2019-01-04T12:32:55.713Z,4.10
2019-01-04T12:35:24.792Z,4.60
2019-01-04T12:37:54.582Z,5.77
2019-01-04T12:40:23.166Z,5.70
2019-01-04T12:42:51.747Z,4.10
2019-01-04T12:45:40.931Z,6.90
2019-01-04T12:48:09.512Z,3.83
2019-01-04T12:50:38.072Z,6.23
2019-01-04T12:53:06.651Z,5.50
2019-01-04T12:55:35.218Z,4.17
2019-01-04T12:58:03.801Z,5.20
2019-01-04T13:00:32.396Z,5.50
2019-01-04T13:03:00.955Z,5.40
2019-01-04T13:05:29.567Z,4.00
2019-01-04T13:07:58.108Z,4.07
2019-01-04T13:10:26.698Z,4.83
2019-01-04T13:12:55.257Z,5.57
2019-01-04T13:15:23.853Z,6.53
2019-01-04T13:17:52.412Z,4.20
2019-01-04T13:20:21.124Z,3.73
2019-01-04T13:22:49.678Z,6.93
2019-01-04T13:25:18.261Z,5.30
2019-01-04T13:27:46.827Z,4.77
2019-01-04T13:30:15.415Z,3.90
2019-01-04T13:32:43.988Z,6.00
2019-01-04T13:35:12.570Z,4.83
2019-01-04T13:37:41.145Z,3.43
2019-01-04T13:40:09.726Z,5.33
2019-01-04T13:42:38.282Z,5.27
2019-01-04T13:45:27.656Z,8.00
2019-01-04T13:47:56.209Z,3.83
2019-01-04T13:50:24.800Z,4.73
2019-01-04T13:52:53.378Z,3.07
2019-01-04T13:55:21.990Z,3.40
2019-01-04T13:57:50.538Z,4.50
2019-01-04T14:03:06.901Z,3.07
2019-01-04T14:05:35.485Z,4.37
2019-01-04T14:08:04.039Z,2.80
2019-01-04T14:10:32.621Z,4.07
2019-01-04T14:13:01.189Z,4.53
2019-01-04T14:15:29.787Z,2.63
2019-01-04T14:17:58.328Z,4.53
2019-01-04T14:20:26.882Z,2.60
2019-01-04T14:22:55.480Z,3.80
2019-01-04T14:25:24.045Z,3.93
2019-01-04T14:27:52.626Z,3.37
2019-01-04T14:33:10.275Z,3.17
2019-01-04T14:35:38.822Z,3.33
2019-01-04T14:38:07.416Z,3.57
2019-01-04T14:40:36.063Z,2.43
2019-01-04T14:43:04.648Z,6.07
2019-01-04T14:45:33.208Z,5.10
2019-01-04T14:48:01.883Z,2.37
2019-01-04T14:50:30.473Z,4.83
2019-01-04T14:52:59.056Z,2.20
2019-01-04T14:55:27.615Z,3.03
2019-01-04T14:57:56.201Z,2.70
2019-01-04T15:00:24.784Z,2.50
2019-01-04T15:02:53.355Z,4.63
2019-01-04T15:05:21.906Z,4.37
2019-01-04T15:07:50.493Z,2.70
2019-01-04T15:10:19.039Z,2.53
2019-01-04T15:12:47.622Z,3.57
2019-01-04T15:15:16.202Z,2.10
2019-01-04T15:17:44.830Z,2.40
2019-01-04T15:20:13.345Z,5.57
2019-01-04T15:22:41.942Z,2.50
2019-01-04T15:25:10.502Z,3.10
2019-01-04T15:27:39.090Z,5.73
2019-01-04T15:33:21.677Z,2.90
2019-01-04T15:35:50.206Z,4.57
2019-01-04T15:38:18.793Z,2.90
2019-01-04T15:40:47.359Z,2.30
2019-01-04T15:43:15.943Z,5.57
2019-01-04T15:45:44.504Z,4.50
2019-01-04T15:48:13.093Z,2.07
2019-01-04T15:50:41.665Z,5.43
2019-01-04T15:53:10.258Z,7.30
2019-01-04T15:55:38.812Z,4.47
2019-01-04T15:58:07.408Z,2.93
2019-01-04T16:00:35.984Z,3.77
2019-01-04T16:03:04.540Z,4.30
2019-01-04T16:05:33.150Z,4.00
2019-01-04T16:08:01.716Z,2.93
2019-01-04T16:10:30.503Z,8.63
2019-01-04T16:12:59.068Z,7.43
2019-01-04T16:15:27.687Z,6.00
2019-01-04T16:17:56.484Z,5.87
2019-01-04T16:20:25.091Z,5.97
2019-01-04T16:22:53.651Z,6.00
2019-01-04T16:25:22.255Z,11.50
2019-01-04T16:27:50.812Z,8.03
2019-01-04T16:30:19.622Z,9.97
2019-01-04T16:32:48.189Z,10.18
2019-01-04T16:35:16.768Z,5.53
2019-01-04T16:37:45.331Z,4.33
2019-01-04T16:40:13.915Z,14.53
2019-01-04T16:42:42.488Z,4.30
2019-01-04T16:45:11.072Z,6.77
2019-01-04T16:47:39.697Z,7.33
2019-01-04T16:50:29.066Z,6.07
2019-01-04T16:55:51.014Z,9.13
2019-01-04T16:58:19.570Z,4.07
2019-01-04T17:00:48.158Z,7.93
2019-01-04T17:03:16.731Z,12.73
2019-01-04T17:05:45.319Z,10.83
2019-01-04T17:08:13.952Z,6.13
2019-01-04T17:10:42.566Z,8.73
2019-01-04T17:13:11.138Z,6.47
2019-01-04T17:15:39.723Z,8.30
2019-01-04T17:18:27.401Z,9.30
2019-01-04T17:20:55.983Z,13.27
2019-01-04T17:23:24.550Z,6.20
2019-01-04T17:25:53.137Z,8.17
2019-01-04T17:28:21.690Z,8.50
2019-01-04T17:30:50.322Z,11.27
2019-01-04T17:33:18.888Z,5.47
2019-01-04T17:35:47.456Z,10.10
2019-01-04T17:38:16.090Z,12.90
2019-01-04T17:40:44.653Z,8.53
2019-01-04T17:43:13.229Z,8.60
2019-01-04T17:45:41.786Z,9.77
2019-01-04T17:48:10.376Z,12.27
2019-01-04T17:50:38.938Z,9.67
2019-01-04T17:53:07.527Z,12.10
2019-01-04T17:55:36.093Z,7.20
2019-01-04T17:58:04.976Z,6.93
2019-01-04T18:00:33.559Z,9.43
2019-01-04T18:03:02.131Z,6.30
2019-01-04T18:05:30.688Z,9.70
2019-01-04T18:07:59.265Z,5.33
2019-01-04T18:10:27.820Z,7.63
2019-01-04T18:12:56.408Z,15.17
2019-01-04T18:15:24.973Z,7.07
2019-01-04T18:17:58.568Z,7.50
2019-01-04T18:20:23.835Z,9.63
2019-01-04T18:22:52.421Z,8.57
2019-01-04T18:25:20.981Z,8.73
2019-01-04T18:27:49.568Z,11.20
2019-01-04T18:30:18.134Z,10.17
2019-01-04T18:32:46.706Z,4.63
2019-01-04T18:35:15.270Z,7.37
2019-01-04T18:37:43.853Z,16.17
2019-01-04T18:40:12.409Z,6.33
2019-01-04T18:42:40.990Z,6.77
2019-01-04T18:45:09.622Z,6.23
2019-01-04T18:47:57.383Z,6.27
2019-01-04T18:53:13.465Z,9.43
2019-01-04T18:55:42.024Z,11.70
2019-01-04T18:58:10.608Z,9.73
2019-01-04T19:00:39.193Z,11.40
2019-01-04T19:03:07.778Z,5.60
2019-01-04T19:05:36.362Z,9.90
2019-01-04T19:08:04.936Z,7.80
2019-01-04T19:10:52.830Z,6.97
2019-01-04T19:13:26.665Z,7.60
2019-01-04T19:15:51.692Z,7.30
2019-01-04T19:18:20.244Z,10.23
2019-01-04T19:20:48.828Z,7.23
2019-01-04T19:23:17.393Z,9.37
2019-01-04T19:25:45.985Z,8.03
2019-01-04T19:28:14.549Z,14.63
2019-01-04T19:31:02.244Z,6.00
2019-01-04T19:33:30.829Z,5.30
2019-01-04T19:35:59.407Z,6.57
2019-01-04T19:41:15.428Z,14.53
2019-01-04T19:43:43.990Z,10.87
2019-01-04T19:46:12.566Z,12.73
2019-01-04T19:49:02.174Z,5.80
2019-01-04T19:51:31.203Z,6.97
2019-01-04T19:53:59.772Z,5.07
2019-01-04T19:56:28.357Z,7.27
2019-01-04T19:58:56.936Z,6.90
2019-01-04T20:01:25.545Z,6.97
2019-01-04T20:03:54.110Z,6.83
2019-01-04T20:07:02.932Z,7.47
2019-01-04T20:10:29.779Z,7.57
2019-01-04T20:17:08.970Z,6.87
2019-01-04T20:20:17.489Z,3.27
2019-01-04T20:23:05.173Z,10.13
2019-01-04T20:28:28.376Z,11.00
2019-01-04T20:31:16.118Z,6.17
2019-01-04T20:34:03.849Z,7.63
2019-01-04T20:36:51.739Z,10.10
2019-01-04T20:42:28.528Z,7.20
2019-01-04T20:45:16.220Z,4.53
2019-01-04T20:48:03.954Z,10.10
2019-01-04T20:53:27.075Z,6.37
2019-01-04T20:56:14.808Z,7.40
2019-01-04T21:01:51.585Z,6.43
2019-01-04T21:04:39.291Z,9.93
2019-01-04T21:10:02.538Z,11.77
2019-01-04T21:12:50.318Z,16.13
2019-01-04T21:15:38.037Z,8.43
2019-01-04T21:18:25.751Z,14.30
2019-01-04T21:21:13.463Z,7.43
2019-01-04T21:24:01.174Z,8.13
2019-01-04T21:29:34.594Z,11.90
2019-01-04T21:32:22.390Z,11.80
2019-01-04T21:35:10.084Z,12.70
2019-01-04T21:37:57.836Z,9.33
2019-01-04T21:40:45.583Z,7.87
2019-01-04T21:43:33.315Z,8.33
2019-01-04T21:46:21.140Z,12.33
2019-01-04T21:49:08.956Z,11.43
2019-01-04T21:51:56.707Z,14.97
2019-01-04T21:57:30.899Z,9.73
2019-01-04T22:02:54.072Z,6.73
2019-01-04T22:05:41.767Z,18.60
2019-01-04T22:11:04.996Z,8.73
2019-01-04T22:13:52.715Z,8.90
2019-01-04T22:16:40.410Z,8.13
2019-01-04T22:19:28.143Z,12.10
2019-01-04T22:22:15.827Z,11.77
2019-01-04T22:25:03.643Z,8.90
2019-01-04T22:27:51.374Z,9.17
2019-01-04T22:30:39.102Z,8.50
2019-01-04T22:33:26.807Z,6.77
2019-01-04T22:36:14.632Z,7.57
2019-01-04T22:39:02.555Z,7.63
2019-01-04T22:44:39.446Z,7.07
2019-01-04T22:50:20.954Z,13.93
2019-01-04T22:55:55.573Z,4.43
2019-01-04T22:58:43.337Z,4.73
2019-01-04T23:04:06.708Z,6.80
2019-01-04T23:06:54.550Z,8.00
2019-01-04T23:12:31.390Z,6.60
2019-01-04T23:15:19.972Z,5.80
2019-01-04T23:20:56.867Z,4.73
2019-01-04T23:26:33.633Z,4.10
2019-01-04T23:29:21.362Z,7.27
2019-01-04T23:32:09.094Z,5.97
2019-01-04T23:34:56.808Z,4.87
2019-01-04T23:37:44.514Z,5.70
2019-01-04T23:40:32.239Z,3.77
2019-01-04T23:43:19.983Z,5.23
2019-01-04T23:48:43.042Z,2.93
2019-01-04T23:51:32.265Z,5.03
2019-01-04T23:54:20.009Z,5.13
2019-01-04T23:57:07.758Z,3.63
2019-01-04T23:59:55.539Z,7.07
